createdAt,value
2023-02-07T00:01:31.737Z,103607.00
2023-02-07T00:03:59.869Z,103614.00
2023-02-07T00:06:31.928Z,103628.00
2023-02-07T00:09:06.655Z,103614.00
2023-02-07T00:11:35.476Z,103619.00
2023-02-07T00:14:02.860Z,103597.00
2023-02-07T00:16:30.065Z,103607.00
2023-02-07T00:19:00.079Z,103609.00
2023-02-07T00:21:29.015Z,103615.00
2023-02-07T00:23:57.563Z,103610.00
2023-02-07T00:26:27.403Z,103607.00
2023-02-07T00:28:56.071Z,103598.00
2023-02-07T00:31:31.712Z,103611.00
2023-02-07T00:34:02.596Z,103601.00
2023-02-07T00:36:32.789Z,103605.00
2023-02-07T00:39:04.277Z,103601.00
2023-02-07T00:41:32.172Z,103592.00
2023-02-07T00:43:59.571Z,103606.00
2023-02-07T00:46:26.894Z,103611.00
2023-02-07T00:48:54.184Z,103616.00
2023-02-07T00:51:21.658Z,103611.00
2023-02-07T00:53:49.097Z,103614.00
2023-02-07T00:56:16.970Z,103602.00
2023-02-07T00:58:44.241Z,103608.00
2023-02-07T01:01:11.637Z,103604.00
2023-02-07T01:03:39.111Z,103615.00
2023-02-07T01:06:07.342Z,103600.00
2023-02-07T01:08:35.691Z,103606.00
2023-02-07T01:11:07.767Z,103596.00
2023-02-07T01:13:35.846Z,103602.00
2023-02-07T01:16:03.397Z,103601.00
2023-02-07T01:18:30.890Z,103591.00
2023-02-07T01:20:58.073Z,103581.00
2023-02-07T01:23:25.284Z,103605.00
2023-02-07T01:25:52.406Z,103606.00
2023-02-07T01:28:19.565Z,103600.00
2023-02-07T01:30:48.086Z,103603.00
2023-02-07T01:33:15.325Z,103605.00
2023-02-07T01:35:46.716Z,103600.00
2023-02-07T01:38:13.941Z,103610.00
2023-02-07T01:40:41.024Z,103619.00
2023-02-07T01:43:17.463Z,103599.00
2023-02-07T01:45:44.700Z,103615.00
2023-02-07T01:48:23.862Z,103612.00
2023-02-07T01:50:55.263Z,103602.00
2023-02-07T01:53:27.557Z,103610.00
2023-02-07T01:55:59.422Z,103600.00
2023-02-07T01:58:26.973Z,103609.00
2023-02-07T02:00:55.413Z,103612.00
2023-02-07T02:03:22.669Z,103610.00
2023-02-07T02:05:54.388Z,103617.00
2023-02-07T02:08:25.118Z,103611.00
2023-02-07T02:11:34.686Z,103613.00
2023-02-07T02:14:32.404Z,103609.00
2023-02-07T02:17:22.288Z,103618.00
2023-02-07T02:20:10.919Z,103628.00
2023-02-07T02:23:09.118Z,103616.00
2023-02-07T02:26:03.898Z,103628.00
2023-02-07T02:29:15.874Z,103620.00
2023-02-07T02:32:04.422Z,103630.00
2023-02-07T02:34:55.899Z,103625.00
2023-02-07T02:37:50.251Z,103621.00
2023-02-07T02:40:57.431Z,103625.00
2023-02-07T02:43:54.077Z,103628.00
2023-02-07T02:46:28.821Z,103620.00
2023-02-07T02:48:57.762Z,103615.00
2023-02-07T02:51:24.950Z,103618.00
2023-02-07T02:53:57.781Z,103613.00
2023-02-07T02:57:25.428Z,103627.00
2023-02-07T03:00:11.074Z,103624.00
2023-02-07T03:03:23.868Z,103631.00
2023-02-07T03:06:33.448Z,103635.00
2023-02-07T03:09:17.561Z,103631.00
2023-02-07T03:12:06.006Z,103623.00
2023-02-07T03:14:45.009Z,103609.00
2023-02-07T03:17:25.237Z,103618.00
2023-02-07T03:20:04.165Z,103613.00
2023-02-07T03:22:33.763Z,103608.00
2023-02-07T03:25:04.196Z,103614.00
2023-02-07T03:27:34.588Z,103603.00
2023-02-07T03:30:07.922Z,103610.00
2023-02-07T03:32:42.170Z,103614.00
2023-02-07T03:35:48.849Z,103600.00
2023-02-07T03:38:17.133Z,103598.00
2023-02-07T03:40:58.464Z,103607.00
2023-02-07T03:43:30.298Z,103612.00
2023-02-07T03:45:58.249Z,103593.00
2023-02-07T03:48:25.463Z,103607.00
2023-02-07T03:50:53.183Z,103609.00
2023-02-07T03:53:21.825Z,103594.00
2023-02-07T03:55:49.046Z,103608.00
2023-02-07T03:58:16.244Z,103614.00
2023-02-07T04:00:43.420Z,103614.00
2023-02-07T04:03:10.621Z,103612.00
2023-02-07T04:05:38.224Z,103603.00
2023-02-07T04:08:05.695Z,103614.00
2023-02-07T04:10:35.242Z,103606.00
2023-02-07T04:13:02.374Z,103611.00
2023-02-07T04:15:29.866Z,103608.00
2023-02-07T04:17:56.989Z,103600.00
2023-02-07T04:20:24.058Z,103601.00
2023-02-07T04:22:51.202Z,103600.00
2023-02-07T04:25:18.790Z,103603.00
2023-02-07T04:27:46.303Z,103608.00
2023-02-07T04:30:33.486Z,103605.00
2023-02-07T04:33:00.653Z,103604.00
2023-02-07T04:35:27.765Z,103600.00
2023-02-07T04:37:55.076Z,103609.00
2023-02-07T04:40:22.429Z,103589.00
2023-02-07T04:42:49.581Z,103604.00
2023-02-07T04:45:16.737Z,103600.00
2023-02-07T04:47:43.837Z,103586.00
2023-02-07T04:50:11.342Z,103593.00
2023-02-07T04:52:40.509Z,103594.00
2023-02-07T04:55:09.385Z,103585.00
2023-02-07T04:57:36.929Z,103592.00
2023-02-07T05:00:05.176Z,103590.00
2023-02-07T05:02:32.334Z,103570.00
2023-02-07T05:04:59.490Z,103582.00
2023-02-07T05:07:26.639Z,103594.00
2023-02-07T05:09:54.013Z,103598.00
2023-02-07T05:12:21.147Z,103586.00
2023-02-07T05:14:48.343Z,103588.00
2023-02-07T05:17:15.605Z,103595.00
2023-02-07T05:19:42.806Z,103598.00
2023-02-07T05:22:10.034Z,103604.00
2023-02-07T05:24:37.240Z,103609.00
2023-02-07T05:27:04.629Z,103600.00
2023-02-07T05:29:31.830Z,103604.00
2023-02-07T05:32:17.487Z,103614.00
2023-02-07T05:34:44.654Z,103604.00
2023-02-07T05:37:11.985Z,103607.00
2023-02-07T05:39:39.281Z,103610.00
2023-02-07T05:42:06.521Z,103616.00
2023-02-07T05:44:33.756Z,103613.00
2023-02-07T05:47:00.926Z,103604.00
2023-02-07T05:49:30.589Z,103589.00
2023-02-07T05:51:57.828Z,103589.00
2023-02-07T05:54:25.033Z,103609.00
2023-02-07T05:56:52.156Z,103619.00
2023-02-07T05:59:19.564Z,103623.00
2023-02-07T06:01:46.766Z,103611.00
2023-02-07T06:04:13.960Z,103628.00
2023-02-07T06:06:43.791Z,103602.00
2023-02-07T06:09:11.181Z,103620.00
2023-02-07T06:11:38.349Z,103614.00
2023-02-07T06:14:05.555Z,103618.00
2023-02-07T06:16:32.810Z,103597.00
2023-02-07T06:19:00.902Z,103619.00
2023-02-07T06:21:37.650Z,103631.00
2023-02-07T06:24:12.666Z,103621.00
2023-02-07T06:26:39.942Z,103622.00
2023-02-07T06:29:10.319Z,103636.00
2023-02-07T06:31:37.454Z,103630.00
2023-02-07T06:34:04.732Z,103638.00
2023-02-07T06:36:34.876Z,103627.00
2023-02-07T06:39:04.944Z,103615.00
2023-02-07T06:41:32.674Z,103642.00
2023-02-07T06:43:59.951Z,103634.00
2023-02-07T06:46:27.192Z,103635.00
2023-02-07T06:48:54.385Z,103636.00
2023-02-07T06:51:21.621Z,103655.00
2023-02-07T06:53:48.892Z,103659.00
2023-02-07T06:56:18.393Z,103652.00
2023-02-07T06:58:45.900Z,103649.00
2023-02-07T07:01:13.428Z,103654.00
2023-02-07T07:03:40.634Z,103650.00
2023-02-07T07:06:07.795Z,103669.00
2023-02-07T07:08:35.041Z,103672.00
2023-02-07T07:11:02.262Z,103666.00
2023-02-07T07:13:29.413Z,103670.00
2023-02-07T07:15:56.750Z,103666.00
2023-02-07T07:18:24.020Z,103677.00
2023-02-07T07:20:55.939Z,103675.00
2023-02-07T07:23:23.683Z,103689.00
2023-02-07T07:25:50.965Z,103692.00
2023-02-07T07:28:18.168Z,103689.00
2023-02-07T07:30:45.611Z,103697.00
2023-02-07T07:33:12.943Z,103698.00
2023-02-07T07:35:40.453Z,103690.00
2023-02-07T07:38:08.555Z,103692.00
2023-02-07T07:40:35.887Z,103692.00
2023-02-07T07:43:03.476Z,103701.00
2023-02-07T07:45:30.634Z,103693.00
2023-02-07T07:47:57.889Z,103686.00
2023-02-07T07:50:25.181Z,103678.00
2023-02-07T07:52:52.484Z,103705.00
2023-02-07T07:55:19.729Z,103706.00
2023-02-07T07:57:46.896Z,103709.00
2023-02-07T08:00:14.776Z,103709.00
2023-02-07T08:02:44.032Z,103718.00
2023-02-07T08:05:13.663Z,103714.00
2023-02-07T08:07:41.307Z,103726.00
2023-02-07T08:10:09.066Z,103722.00
2023-02-07T08:12:36.435Z,103717.00
2023-02-07T08:15:04.149Z,103714.00
2023-02-07T08:17:31.324Z,103708.00
2023-02-07T08:19:58.531Z,103716.00
2023-02-07T08:22:25.873Z,103708.00
2023-02-07T08:24:53.498Z,103708.00
2023-02-07T08:27:20.900Z,103704.00
2023-02-07T08:29:48.261Z,103699.00
2023-02-07T08:32:15.626Z,103716.00
2023-02-07T08:34:42.965Z,103722.00
2023-02-07T08:37:10.735Z,103727.00
2023-02-07T08:39:38.023Z,103725.00
2023-02-07T08:42:08.357Z,103721.00
2023-02-07T08:44:36.818Z,103721.00
2023-02-07T08:47:04.716Z,103726.00
2023-02-07T08:49:31.963Z,103716.00
2023-02-07T08:51:59.215Z,103698.00
2023-02-07T08:54:26.587Z,103711.00
2023-02-07T08:56:53.760Z,103719.00
2023-02-07T08:59:21.131Z,103704.00
2023-02-07T09:01:48.293Z,103706.00
2023-02-07T09:04:15.534Z,103708.00
2023-02-07T09:06:42.857Z,103704.00
2023-02-07T09:09:11.033Z,103714.00
2023-02-07T09:11:38.629Z,103712.00
2023-02-07T09:14:05.978Z,103717.00
2023-02-07T09:16:33.272Z,103721.00
2023-02-07T09:19:00.465Z,103713.00
2023-02-07T09:21:27.697Z,103718.00
2023-02-07T09:23:55.020Z,103717.00
2023-02-07T09:26:26.733Z,103721.00
2023-02-07T09:28:54.007Z,103715.00
2023-02-07T09:31:22.112Z,103702.00
2023-02-07T09:33:49.453Z,103702.00
2023-02-07T09:36:22.494Z,103696.00
2023-02-07T09:38:50.959Z,103693.00
2023-02-07T09:41:53.673Z,103690.00
2023-02-07T09:44:59.441Z,103678.00
2023-02-07T09:47:27.225Z,103675.00
2023-02-07T09:50:18.344Z,103671.00
2023-02-07T09:52:55.788Z,103679.00
2023-02-07T09:55:32.747Z,103680.00
2023-02-07T09:58:16.763Z,103689.00
2023-02-07T10:00:54.140Z,103687.00
2023-02-07T10:03:24.621Z,103688.00
2023-02-07T10:06:17.408Z,103693.00
2023-02-07T10:08:55.255Z,103683.00
2023-02-07T10:11:40.331Z,103671.00
2023-02-07T10:14:28.789Z,103678.00
2023-02-07T10:17:30.433Z,103675.00
2023-02-07T10:20:06.509Z,103668.00
2023-02-07T10:23:01.882Z,103669.00
2023-02-07T10:26:11.331Z,103675.00
2023-02-07T10:28:44.937Z,103678.00
2023-02-07T10:31:19.315Z,103671.00
2023-02-07T10:33:59.908Z,103676.00
2023-02-07T10:36:29.854Z,103683.00
2023-02-07T10:39:39.256Z,103674.00
2023-02-07T10:42:15.096Z,103666.00
2023-02-07T10:44:43.160Z,103658.00
2023-02-07T10:47:18.620Z,103649.00
2023-02-07T10:49:49.989Z,103659.00
2023-02-07T10:52:39.334Z,103649.00
2023-02-07T10:55:10.434Z,103641.00
2023-02-07T10:57:38.891Z,103647.00
2023-02-07T11:00:29.770Z,103636.00
2023-02-07T11:03:20.909Z,103638.00
2023-02-07T11:06:08.027Z,103633.00
2023-02-07T11:08:38.310Z,103627.00
2023-02-07T11:11:32.990Z,103622.00
2023-02-07T11:14:08.213Z,103614.00
2023-02-07T11:16:35.794Z,103626.00
2023-02-07T11:19:07.150Z,103614.00
2023-02-07T11:21:34.292Z,103615.00
2023-02-07T11:24:17.880Z,103611.00
2023-02-07T11:27:12.607Z,103609.00
2023-02-07T11:29:58.488Z,103618.00
2023-02-07T11:32:28.571Z,103606.00
2023-02-07T11:35:01.770Z,103620.00
2023-02-07T11:37:37.760Z,103617.00
2023-02-07T11:40:20.123Z,103618.00
2023-02-07T11:42:59.621Z,103619.00
2023-02-07T11:45:29.309Z,103615.00
2023-02-07T11:47:58.909Z,103600.00
2023-02-07T11:50:43.945Z,103595.00
2023-02-07T11:53:27.351Z,103600.00
2023-02-07T11:55:56.890Z,103601.00
2023-02-07T11:58:39.310Z,103595.00
2023-02-07T12:01:08.854Z,103596.00
2023-02-07T12:04:00.926Z,103595.00
2023-02-07T12:06:40.742Z,103596.00
2023-02-07T12:09:54.720Z,103591.00
2023-02-07T12:12:46.974Z,103593.00
2023-02-07T12:15:17.837Z,103595.00
2023-02-07T12:18:35.819Z,103598.00
2023-02-07T12:21:37.466Z,103596.00
2023-02-07T12:24:43.591Z,103602.00
2023-02-07T12:27:19.800Z,103596.00
2023-02-07T12:30:32.420Z,103581.00
2023-02-07T12:33:15.265Z,103583.00
2023-02-07T12:36:26.713Z,103581.00
2023-02-07T12:39:36.389Z,103587.00
2023-02-07T12:42:22.890Z,103590.00
2023-02-07T12:44:59.869Z,103588.00
2023-02-07T12:47:54.737Z,103584.00
2023-02-07T12:50:48.477Z,103581.00
2023-02-07T12:53:39.282Z,103588.00
2023-02-07T12:56:09.157Z,103586.00
2023-02-07T12:59:17.268Z,103585.00
2023-02-07T13:02:13.785Z,103588.00
2023-02-07T13:05:22.389Z,103592.00
2023-02-07T13:08:13.861Z,103593.00
2023-02-07T13:11:00.904Z,103585.00
2023-02-07T13:13:38.485Z,103595.00
2023-02-07T13:16:08.369Z,103589.00
2023-02-07T13:18:57.775Z,103585.00
2023-02-07T13:21:46.517Z,103581.00
2023-02-07T13:24:22.025Z,103580.00
2023-02-07T13:27:00.944Z,103575.00
2023-02-07T13:29:32.721Z,103573.00
2023-02-07T13:32:05.726Z,103558.00
2023-02-07T13:34:45.015Z,103552.00
2023-02-07T13:37:17.443Z,103559.00
2023-02-07T13:40:44.406Z,103559.00
2023-02-07T13:44:09.000Z,103559.00
2023-02-07T13:47:34.128Z,103557.00
2023-02-07T13:50:42.020Z,103554.00
2023-02-07T13:53:30.851Z,103546.00
2023-02-07T13:56:08.559Z,103552.00
2023-02-07T13:58:55.102Z,103544.00
2023-02-07T14:01:54.572Z,103551.00
2023-02-07T14:04:23.724Z,103549.00
2023-02-07T14:06:53.900Z,103552.00
2023-02-07T14:09:39.415Z,103536.00
2023-02-07T14:12:25.698Z,103547.00
2023-02-07T14:15:02.660Z,103550.00
2023-02-07T14:18:45.470Z,103552.00
2023-02-07T14:21:21.518Z,103551.00
2023-02-07T14:24:05.283Z,103550.00
2023-02-07T14:26:38.308Z,103552.00
2023-02-07T14:29:20.708Z,103558.00
2023-02-07T14:32:22.536Z,103545.00
2023-02-07T14:35:21.612Z,103555.00
2023-02-07T14:38:05.535Z,103559.00
2023-02-07T14:40:44.477Z,103546.00
2023-02-07T14:43:15.216Z,103547.00
2023-02-07T14:46:18.107Z,103541.00
2023-02-07T14:49:14.603Z,103544.00
2023-02-07T14:51:55.457Z,103539.00
2023-02-07T14:54:45.290Z,103547.00
2023-02-07T14:57:33.947Z,103548.00
2023-02-07T15:00:13.617Z,103552.00
2023-02-07T15:02:52.036Z,103545.00
2023-02-07T15:05:19.259Z,103561.00
2023-02-07T15:07:48.948Z,103553.00
2023-02-07T15:10:28.406Z,103544.00
2023-02-07T15:12:57.133Z,103546.00
2023-02-07T15:16:10.857Z,103555.00
2023-02-07T15:18:50.300Z,103559.00
2023-02-07T15:21:49.822Z,103553.00
2023-02-07T15:24:56.394Z,103557.00
2023-02-07T15:27:27.857Z,103561.00
2023-02-07T15:30:05.488Z,103566.00
2023-02-07T15:32:41.740Z,103568.00
2023-02-07T15:35:36.756Z,103561.00
2023-02-07T15:38:27.890Z,103569.00
2023-02-07T15:40:56.021Z,103568.00
2023-02-07T15:43:33.812Z,103573.00
2023-02-07T15:46:11.759Z,103567.00
2023-02-07T15:48:58.253Z,103565.00
2023-02-07T15:51:33.920Z,103573.00
2023-02-07T15:54:02.529Z,103573.00
2023-02-07T15:56:31.193Z,103563.00
2023-02-07T15:59:09.448Z,103573.00
2023-02-07T16:01:39.387Z,103582.00
2023-02-07T16:04:06.715Z,103574.00
2023-02-07T16:06:34.015Z,103579.00
2023-02-07T16:09:04.580Z,103583.00
2023-02-07T16:11:31.610Z,103583.00
2023-02-07T16:14:07.437Z,103583.00
2023-02-07T16:16:46.990Z,103585.00
2023-02-07T16:19:32.515Z,103573.00
2023-02-07T16:22:12.690Z,103574.00
2023-02-07T16:24:44.402Z,103583.00
2023-02-07T16:27:30.618Z,103579.00
2023-02-07T16:30:03.977Z,103573.00
2023-02-07T16:32:34.058Z,103585.00
2023-02-07T16:35:01.216Z,103590.00
2023-02-07T16:37:29.096Z,103585.00
2023-02-07T16:39:56.382Z,103591.00
2023-02-07T16:42:23.822Z,103599.00
2023-02-07T16:44:50.998Z,103598.00
2023-02-07T16:47:18.630Z,103598.00
2023-02-07T16:49:46.455Z,103584.00
2023-02-07T16:52:14.018Z,103598.00
2023-02-07T16:54:41.279Z,103598.00
2023-02-07T16:57:11.874Z,103611.00
2023-02-07T16:59:39.411Z,103611.00
2023-02-07T17:02:16.366Z,103605.00
2023-02-07T17:04:43.803Z,103594.00
2023-02-07T17:07:12.553Z,103614.00
2023-02-07T17:09:39.961Z,103625.00
2023-02-07T17:12:07.567Z,103624.00
2023-02-07T17:15:32.166Z,103631.00
2023-02-07T17:18:00.452Z,103634.00
2023-02-07T17:20:32.947Z,103635.00
2023-02-07T17:23:01.107Z,103623.00
2023-02-07T17:25:29.997Z,103637.00
2023-02-07T17:27:58.539Z,103637.00
2023-02-07T17:30:38.512Z,103642.00
2023-02-07T17:33:07.136Z,103637.00
2023-02-07T17:35:35.561Z,103635.00
2023-02-07T17:38:03.446Z,103625.00
2023-02-07T17:40:40.604Z,103648.00
2023-02-07T17:43:09.650Z,103648.00
2023-02-07T17:45:38.651Z,103648.00
2023-02-07T17:48:06.229Z,103640.00
2023-02-07T17:50:37.850Z,103645.00
2023-02-07T17:53:05.465Z,103648.00
2023-02-07T17:55:35.217Z,103651.00
2023-02-07T17:58:06.068Z,103651.00
2023-02-07T18:00:40.004Z,103649.00
2023-02-07T18:03:08.708Z,103645.00
2023-02-07T18:05:36.870Z,103636.00
2023-02-07T18:08:04.628Z,103644.00
2023-02-07T18:10:35.343Z,103653.00
2023-02-07T18:13:03.023Z,103644.00
2023-02-07T18:15:31.309Z,103649.00
2023-02-07T18:17:59.429Z,103638.00
2023-02-07T18:20:32.501Z,103640.00
2023-02-07T18:23:01.144Z,103642.00
2023-02-07T18:25:30.602Z,103642.00
2023-02-07T18:27:59.471Z,103634.00
2023-02-07T18:30:28.764Z,103626.00
2023-02-07T18:32:56.094Z,103624.00
2023-02-07T18:35:23.553Z,103630.00
2023-02-07T18:37:50.781Z,103630.00
2023-02-07T18:40:18.205Z,103627.00
2023-02-07T18:42:45.733Z,103634.00
2023-02-07T18:45:14.600Z,103632.00
2023-02-07T18:47:43.121Z,103642.00
2023-02-07T18:50:12.793Z,103639.00
2023-02-07T18:52:40.311Z,103637.00
2023-02-07T18:55:08.539Z,103645.00
2023-02-07T18:57:35.922Z,103642.00
2023-02-07T19:00:06.570Z,103625.00
2023-02-07T19:02:33.880Z,103626.00
2023-02-07T19:05:01.262Z,103621.00
2023-02-07T19:07:28.592Z,103616.00
2023-02-07T19:09:55.806Z,103622.00
2023-02-07T19:12:23.418Z,103612.00
2023-02-07T19:14:51.151Z,103623.00
2023-02-07T19:17:20.261Z,103617.00
2023-02-07T19:19:47.893Z,103615.00
2023-02-07T19:22:17.874Z,103625.00
2023-02-07T19:24:50.895Z,103613.00
2023-02-07T19:27:18.169Z,103618.00
2023-02-07T19:29:45.476Z,103629.00
2023-02-07T19:32:12.697Z,103602.00
2023-02-07T19:34:39.914Z,103615.00
2023-02-07T19:37:07.170Z,103618.00
2023-02-07T19:39:34.693Z,103620.00
2023-02-07T19:42:01.960Z,103615.00
2023-02-07T19:44:29.429Z,103615.00
2023-02-07T19:46:56.932Z,103620.00
2023-02-07T19:49:24.321Z,103629.00
2023-02-07T19:51:52.060Z,103610.00
2023-02-07T19:54:19.243Z,103621.00
2023-02-07T19:56:46.549Z,103619.00
2023-02-07T19:59:13.786Z,103609.00
2023-02-07T20:02:00.137Z,103587.00
2023-02-07T20:04:27.540Z,103608.00
2023-02-07T20:06:54.932Z,103614.00
2023-02-07T20:09:22.271Z,103608.00
2023-02-07T20:11:49.758Z,103602.00
2023-02-07T20:14:18.957Z,103609.00
2023-02-07T20:16:49.403Z,103602.00
2023-02-07T20:19:23.304Z,103607.00
2023-02-07T20:21:54.167Z,103589.00
2023-02-07T20:24:22.082Z,103615.00
2023-02-07T20:26:49.551Z,103610.00
2023-02-07T20:29:19.599Z,103606.00
2023-02-07T20:31:49.849Z,103595.00
2023-02-07T20:34:17.971Z,103588.00
2023-02-07T20:37:04.042Z,103597.00
2023-02-07T20:39:33.406Z,103597.00
2023-02-07T20:42:01.091Z,103590.00
2023-02-07T20:44:29.135Z,103584.00
2023-02-07T20:46:59.587Z,103597.00
2023-02-07T20:49:30.610Z,103584.00
2023-02-07T20:52:01.608Z,103589.00
2023-02-07T20:54:30.596Z,103594.00
2023-02-07T20:56:58.634Z,103580.00
2023-02-07T20:59:30.205Z,103590.00
2023-02-07T21:01:57.585Z,103576.00
2023-02-07T21:04:26.380Z,103591.00
2023-02-07T21:06:54.491Z,103594.00
2023-02-07T21:09:22.246Z,103587.00
2023-02-07T21:11:52.651Z,103592.00
2023-02-07T21:14:30.295Z,103594.00
2023-02-07T21:17:01.684Z,103586.00
2023-02-07T21:19:29.589Z,103594.00
2023-02-07T21:21:56.849Z,103598.00
2023-02-07T21:24:44.057Z,103593.00
2023-02-07T21:27:11.970Z,103581.00
2023-02-07T21:29:39.500Z,103578.00
2023-02-07T21:32:06.814Z,103580.00
2023-02-07T21:34:34.042Z,103586.00
2023-02-07T21:37:01.368Z,103591.00
2023-02-07T21:39:28.665Z,103581.00
2023-02-07T21:41:55.916Z,103590.00
2023-02-07T21:44:23.732Z,103591.00
2023-02-07T21:46:52.383Z,103579.00
2023-02-07T21:49:21.103Z,103587.00
2023-02-07T21:51:49.990Z,103596.00
2023-02-07T21:54:17.572Z,103587.00
2023-02-07T21:56:45.593Z,103578.00
2023-02-07T21:59:17.345Z,103594.00
2023-02-07T22:01:46.332Z,103575.00
2023-02-07T22:04:14.466Z,103584.00
2023-02-07T22:06:43.883Z,103578.00
2023-02-07T22:09:16.993Z,103567.00
2023-02-07T22:11:45.030Z,103577.00
2023-02-07T22:14:13.812Z,103574.00
2023-02-07T22:16:41.312Z,103577.00
2023-02-07T22:19:13.313Z,103580.00
2023-02-07T22:21:40.759Z,103573.00
2023-02-07T22:24:08.535Z,103564.00
2023-02-07T22:26:35.984Z,103573.00
2023-02-07T22:29:06.419Z,103552.00
2023-02-07T22:31:38.311Z,103580.00
2023-02-07T22:34:10.136Z,103573.00
2023-02-07T22:36:40.688Z,103573.00
2023-02-07T22:39:09.320Z,103572.00
2023-02-07T22:41:37.579Z,103580.00
2023-02-07T22:44:05.671Z,103569.00
2023-02-07T22:46:32.956Z,103574.00
2023-02-07T22:49:00.197Z,103573.00
2023-02-07T22:51:32.744Z,103580.00
2023-02-07T22:54:05.664Z,103576.00
2023-02-07T22:56:36.598Z,103573.00
2023-02-07T22:59:07.598Z,103576.00
2023-02-07T23:01:39.430Z,103574.00
2023-02-07T23:04:11.880Z,103580.00
2023-02-07T23:06:39.638Z,103581.00
2023-02-07T23:09:07.456Z,103579.00
2023-02-07T23:11:39.683Z,103570.00
2023-02-07T23:14:07.523Z,103596.00
2023-02-07T23:16:36.500Z,103577.00
2023-02-07T23:19:13.588Z,103582.00
2023-02-07T23:21:40.996Z,103584.00
2023-02-07T23:24:08.947Z,103588.00
2023-02-07T23:26:36.861Z,103596.00
2023-02-07T23:29:05.735Z,103582.00
2023-02-07T23:31:34.196Z,103601.00
2023-02-07T23:34:01.816Z,103581.00
2023-02-07T23:36:49.886Z,103583.00
2023-02-07T23:39:17.306Z,103583.00
2023-02-07T23:41:44.711Z,103577.00
2023-02-07T23:44:11.947Z,103584.00
2023-02-07T23:46:39.776Z,103583.00
2023-02-07T23:49:07.008Z,103596.00
2023-02-07T23:51:34.442Z,103576.00
2023-02-07T23:54:02.927Z,103581.00
2023-02-07T23:56:30.231Z,103578.00
2023-02-07T23:58:57.585Z,103573.00
